Indian Head, PA (15446)

12:54 PM EDT on September 05, 2015 (GMT -0400)
Seven Springs Resort | | Change Station
CLOSE
Current Station
Personal Weather Station
Location: Champion, PA
Elevation: 2540 ft
Nearby Weather Stations

Elev 2540 ft 40.02 °N, 79.30 °W | Updated 22 seconds ago

Mostly Cloudy
Mostly Cloudy
74.9 °F
Feels Like 75 °F
N
2.0
Wind Variable Wind from SE
Gusts 11.0 mph

Today
High -- | Low -- °F
--% Chance of Precip.
Yesterday
High -- | Low -- °F
Precip. -- in
6:48 AM 7:43 PM
Waning Gibbous, 47% visible
Pressure 30.22 in
Visibility 7.0 miles
Clouds Mostly Cloudy 4100 ft
Heat Index 75 °F
Dew Point 69 °F
Humidity 81%
Rainfall 0.00 in
Snow Depth Not available.
UV 5 out of 12
Pollen 10.20 out of 12
Air Quality Not available.
Flu Activity Not available.
METAR KLBE 051650Z 15006KT 7SM BKN041 28/19 A3022
Pressure 30.22 in
Visibility 7.0 miles
Clouds Mostly Cloudy 4100 ft
Heat Index 75 °F
Dew Point 69 °F
Humidity 81%
Rainfall 0.00 in
Snow Depth Not available.
UV 5 out of 12
Pollen 10.20 out of 12
Air Quality Not available.
Flu Activity Not available.
METAR KLBE 051650Z 15006KT 7SM BKN041 28/19 A3022

10-Day Weather Forecast

×

Almanac

Astronomy

Sep. 05, 2015 Rise Set
Actual Time
Civil Twilight
Nautical Twilight
Astronomical Twilight
Moon
Length of Visible Light
Length of Day
Tomorrow will be .
, % of the Moon is Illuminated

Today's Extremes

State Highs State Lows

Community

WunderPhotos

Upload Photos

1,852,498 photos uploaded!

WunderBlogs® & News

Nearby

Air Quality

  Air Quality AQ Index Pollutant
Not available.

Snow Depth

Station Depth Elevation

Earthquake Activity

City Distance Mag. Time & Date
Minimum magnitude displayed is 2.5.

Coastal Water Temperatures

Place Temperature

Stations

Nearby Weather Stations

Station Location Temp. Windchill Dew Point Humidity Wind Precip. Elev Updated Type